EFKE/KEM METAR and TAF weather

Enter ICAO airport designator
Station Type Date Time Source
EFKE METAR 2018/12/12 17:20 UTC NOAA

EFKE 121720Z 02002KT CAVOK M17/M19 Q1032


Station Type Date Time Source
EFKE Decoded METAR 2018/12/12 17:20 UTC NOAA

Kemi, Finland (EFKE) 65-47N 024-35E
Dec 12, 2018 - 12:20 PM EST / 2018.12.12 1720 UTC
Wind: from the NNE (020 degrees) at 2 MPH (2 KT):0
Visibility: greater than 7 mile(s):0
Temperature: 1 F (-17 C)
Dew Point: -2 F (-19 C)
Relative Humidity: 84%
Pressure (altimeter): 30.47 in. Hg (1032 hPa)
ob: EFKE 121720Z 02002KT CAVOK M17/M19 Q1032
cycle: 17

Station Type Date Time Source
EFKE TAF 2015/01/12 15:42 UTC NOAA

TAF EFKE 121433Z 1215/1312 03006KT CAVOK
BECMG 1300/1302 9999 BKN015
FM130400 07008KT 9999 SCT014 BKN018
TEMPO 1304/1312 7000 -SN


Example: see airport list